Southwestern Research Station, Arizona Weather observations

Data are for 10 minute period ending at time listed.
 Day   Time   Solar   Ave.   Ave.  Ave.  Vector  Max.   Baro.   Total    
  of    of     Rad.   Air    Rel.  Wind   Wind   Wind  Press.  Precip.   
Year   Day            Temp.  Hum.  Speed  Dir.   Gust                    
2026   (PST)  Kw/m2    F      %     mph   deg.    mph    mb.     in.     
-------------------------------------------------------------------------
 241   23:40   0.00   72.1    60    0.6    92     3.5   837.6    0.00 
 241   23:50   0.00   73.5    55    0.3   255     2.6   837.8    0.00 
 242    0:00   0.00   73.6    56    0.3   270     2.9   838.0    0.00 
 242    0:10   0.00   74.3    54    0.6   304     3.4   838.2    0.00 
 242    0:20   0.00   74.2    54    0.5    46     5.3   838.2    0.00 
 242    0:30   0.00   74.1    53    0.9   284     4.2   838.1    0.00 
 242    0:40   0.00   73.8    54    0.4   286     3.5   838.1    0.00 
 242    0:50   0.00   73.8    53    0.6   295     3.4   837.9    0.00 
 242    1:00   0.00   74.0    53    0.1   192     2.0   837.8    0.00 
 242    1:10   0.00   73.1    54    0.1   331     5.9   837.7    0.00 
 242    1:20   0.00   72.7    54    0.6   259     3.2   837.7    0.00 
 242    1:30   0.00   71.9    59    0.5   243     3.7   837.8    0.00 
 242    1:40   0.00   71.0    62    0.9   305     7.5   837.8    0.00 
 242    1:50   0.00   70.4    64    0.8   243     2.7   837.8    0.00 
 242    2:00   0.00   69.6    66    0.4   247     4.2   837.8    0.00 
 242    2:10   0.00   68.8    67    1.2   243     4.4   837.9    0.00 
 242    2:20   0.00   68.5    67    0.1   271     2.8   837.9    0.00 
 242    2:30   0.00   67.5    69    0.3   239     3.1   838.0    0.00 
 242    2:40   0.00   67.2    68    0.7   262     3.3   838.1    0.00 
 242    2:50   0.00   66.8    70    0.5   268     2.6   838.3    0.00 
 242    3:00   0.00   66.0    72    0.3   317     2.6   838.3    0.00 
 242    3:10   0.00   65.6    70    0.3   344     1.8   838.3    0.00 
 242    3:20   0.00   65.2    73    0.2   259     1.2   838.2    0.00 
 242    3:30   0.00   64.5    74    0.0   314     0.8   838.3    0.00 
 242    3:40   0.00   64.2    74    0.0   289     0.5   838.3    0.00 
 242    3:50   0.00   63.6    76    0.4   274     2.5   838.3    0.00 
 242    4:00   0.00   63.4    75    0.1   324     1.2   838.3    0.00 
 242    4:10   0.00   63.5    76    0.0   258     0.7   838.4    0.00 
 242    4:20   0.00   62.8    77    0.1   298     2.3   838.4    0.00 
 242    4:30   0.00   62.4    77    0.2   280     1.5   838.3    0.00 
 242    4:40   0.00   62.3    78    0.0   285     0.7   838.3    0.00 
 242    4:50   0.00   61.9    79    0.0     0     0.0   838.2    0.00 
 242    5:00   0.00   61.6    80    0.0     0     0.0   838.3    0.00 
 242    5:10   0.00   61.4    81    0.2   251     1.5   838.3    0.00 
 242    5:20   0.00   61.3    80    0.1   330     1.7   838.4    0.00 
 242    5:30   0.00   60.9    81    0.0   283     0.1   838.4    0.00 
 242    5:40   0.00   60.5    82    0.1   314     1.6   838.4    0.00 
 242    5:50   0.01   60.3    83    0.0     0     0.0   838.4    0.00 
 242    6:00   0.02   60.3    83    0.0     0     0.0   838.5    0.00 
 242    6:10   0.04   60.7    83    0.0   306     0.6   838.6    0.00 
 242    6:20   0.04   61.2    81    0.3   259     1.6   838.6    0.00 
 242    6:30   0.06   62.0    79    0.1   278     0.7   838.6    0.00 
 242    6:40   0.08   63.1    78    0.0   224     0.4   838.6    0.00 
 242    6:50   0.09   64.8    73    0.1    86     1.2   838.6    0.00 
 242    7:00   0.13   66.5    70    0.1    47     1.9   838.7    0.00 
 242    7:10   0.21   67.6    67    0.2   142     1.1   838.7    0.00 
 242    7:20   0.29   69.2    62    0.3   146     1.8   838.8    0.00 
 242    7:30   0.29   71.5    57    0.1   106     1.4   838.8    0.00 
 242    7:40   0.16   72.6    57    0.2   130     1.5   838.8    0.00 
 242    7:50   0.30   74.0    54    0.5   156     1.6   838.9    0.00 
 242    8:00   0.32   75.7    50    1.1   125     2.3   838.8    0.00 
 242    8:10   0.38   77.2    46    1.2   118     3.1   838.8    0.00 
 242    8:20   0.42   77.7    46    0.8    68     2.4   838.7    0.00 
 242    8:30   0.45   78.7    43    1.1    92     2.7   838.7    0.00 
 242    8:40   0.48   79.9    41    1.4   115     5.0   838.7    0.00 
 242    8:50   0.51   80.2    41    0.9   133     3.9   838.7    0.00 
 242    9:00   0.56   81.1    40    1.7   111     4.1   838.7    0.00 
 242    9:10   0.57   80.7    40    1.5   120     3.8   838.8    0.00 
 242    9:20   0.60   82.1    38    1.4    86     3.2   838.8    0.00 
 242    9:30   0.61   82.7    37    1.4   139     3.9   838.7    0.00 
 242    9:40   0.60   83.1    37    1.1   111     4.5   838.6    0.00 
 242    9:50   0.63   83.9    37    2.1    55     9.3   838.5    0.00 
 242   10:00   0.68   85.3    36    1.3   352     5.7   838.4    0.00 
 242   10:10   0.70   84.7    36    2.9    73     7.4   838.5    0.00 
 242   10:20   0.75   84.9    37    1.8    35     6.5   838.4    0.00 
 242   10:30   0.76   85.1    40    3.4   107     7.7   838.4    0.00 
 242   10:40   0.72   84.3    41    3.6    95    10.3   838.4    0.00 
 242   10:50   0.74   84.3    40    4.0   101     9.9   838.3    0.00 
 242   11:00   0.74   84.8    40    3.9    98    10.4   838.2    0.00 
 242   11:10   0.71   84.6    40    3.7    99     9.5   838.1    0.00 
 242   11:20   0.76   85.3    39    3.8    94    10.4   838.1    0.00 
 242   11:30   0.86   85.4    38    3.5   113     8.6   837.9    0.00 
 242   11:40   0.88   86.1    37    2.5   116     8.1   837.8    0.00 
 242   11:50   0.88   87.3    36    3.6   115     7.5   837.7    0.00 
 242   12:00   0.81   86.5    36    4.1   114    10.7   837.5    0.00 
 242   12:10   0.86   86.6    36    2.6   141     6.9   837.4    0.00 
 242   12:20   0.81   87.4    34    2.9   119     7.5   837.2    0.00 
 242   12:30   0.92   87.7    34    3.9   113     9.8   837.1    0.00 
 242   12:40   0.91   88.2    34    2.4   130     8.6   837.0    0.00 
 242   12:50   0.76   88.4    33    1.9   119     6.5   836.8    0.00 
 242   13:00   0.36   87.3    34    2.7    86     7.6   836.8    0.00 
 242   13:10   0.17   85.6    36    2.7    96     8.0   836.6    0.00 
 242   13:20   0.10   85.1    36    1.1   327     5.9   836.7    0.00 
 242   13:30   0.08   82.8    36    2.5   213    10.5   836.8    0.00 
 242   13:40   0.05   78.5    36    3.1   218    10.3   836.9    0.00 
 242   13:50   0.04   77.6    38    2.2   186     7.5   837.1    0.00 
 242   14:00   0.04   74.5    46    4.1   261    14.5   837.5    0.00 
 242   14:10   0.04   70.3    61    3.5   320    15.2   837.6    0.00 
 242   14:20   0.04   68.6    62    3.5   288    12.8   837.6    0.00 
 242   14:30   0.05   67.1    72    2.4   299     7.4   837.5    0.02 
 242   14:40   0.06   64.6    84    1.5   350     4.6   837.3    0.01 
 242   14:50   0.07   64.0    90    0.3    44     2.2   837.1    0.00 
 242   15:00   0.09   64.3    91    0.3   206     2.3   836.9    0.00 
 242   15:10   0.12   65.0    93    0.5   243     2.8   836.6    0.00 
 242   15:20   0.19   65.7    91    0.6   209     2.3   836.4    0.00 
 242   15:30   0.39   66.8    86    0.3   197     3.1   836.1    0.00 
 242   15:40   0.49   69.2    75    1.1   279     2.9   836.0    0.00 
 242   15:50   0.61   72.1    64    1.7   257     5.9   836.0    0.00 
 242   16:00   0.58   75.0    57    1.3   334     5.2   836.0    0.00 
 242   16:10   0.42   76.0    52    2.1   126     6.6   836.1    0.00 
 242   16:20   0.38   76.4    52    1.5   215     6.1   836.1    0.00 
 242   16:30   0.46   79.2    46    4.4   199    12.3   835.9    0.00 
 242   16:40   0.46   80.3    42    3.3   202     9.9   835.8    0.00 
 242   16:50   0.43   80.9    42    2.7   195     9.1   835.8    0.00 
 242   17:00   0.41   81.0    41    3.0   205    11.9   835.7    0.00 
 242   17:10   0.34   80.9    40    2.5   215     8.3   835.7    0.00 
 242   17:20   0.15   80.9    38    3.2   200    10.2   835.7    0.00 
 242   17:30   0.11   80.0    38    2.4   202     9.5   835.7    0.00 
 242   17:40   0.06   79.5    40    1.3   216     6.6   835.7    0.00 
 242   17:50   0.05   78.7    44    1.8   277     4.5   835.6    0.00 
 242   18:00   0.04   76.4    51    2.0   307     5.6   835.6    0.00 
 242   18:10   0.04   74.7    53    3.3   314     7.5   835.6    0.00 
 242   18:20   0.03   73.9    54    2.0   327     5.0   835.5    0.00 
 242   18:30   0.02   73.3    56    0.2   305     1.8   835.4    0.00 
 242   18:40   0.01   72.4    59    0.0     0     0.0   835.4    0.00 
 242   18:50   0.00   71.1    63    0.0     0     0.0   835.5    0.00 
 242   19:00   0.00   69.9    66    0.1   310     1.5   835.3    0.00 
 242   19:10   0.00   68.9    69    0.8   318     4.0   835.4    0.00 
 242   19:20   0.00   68.8    69    0.1   230     1.8   835.5    0.00 
 242   19:30   0.00   68.3    70    0.1   240     1.7   835.6    0.00 
 242   19:40   0.00   68.3    71    0.0     0     0.0   835.7    0.00 
 242   19:50   0.00   68.1    71    0.0   266     0.4   835.8    0.00 
 242   20:00   0.00   68.4    71    0.2   272     2.1   835.9    0.00 
 242   20:10   0.00   68.5    72    0.2   283     1.9   836.0    0.00 
 242   20:20   0.00   68.4    72    0.2   280     2.1   836.2    0.00 
 242   20:30   0.00   68.3    72    0.1   234     1.0   836.3    0.00 
 242   20:40   0.00   68.4    73    0.3   270     2.3   836.5    0.00 
 242   20:50   0.00   68.4    74    0.0     0     0.0   836.6    0.00 
 242   21:00   0.00   68.1    74    0.1   210     1.6   836.6    0.00 
 242   21:10   0.00   68.2    72    0.7   323     2.7   836.7    0.00 
 242   21:20   0.00   68.1    74    0.2   219     2.0   836.8    0.00 
 242   21:30   0.00   67.7    76    0.4   275     1.8   836.8    0.00 
 242   21:40   0.00   67.9    74    0.1   285     0.9   836.7    0.00 
 242   21:50   0.00   67.5    76    0.2   264     2.1   836.7    0.00 
 242   22:00   0.00   67.3    76    0.3   316     2.0   836.6    0.00 
 242   22:10   0.00   67.0    77    0.1   235     1.2   836.5    0.00 
 242   22:20   0.00   66.7    78    0.2   300     1.8   836.5    0.00 
 242   22:30   0.00   66.6    79    0.0     0     0.0   836.5    0.00 
 242   22:40   0.00   66.2    79    0.0     0     0.0   836.6    0.00 
 242   22:50   0.00   65.8    80    0.0    15     1.1   836.6    0.00 
 242   23:00   0.00   65.6    80    0.0     0     0.0   836.6    0.00 
 242   23:10   0.00   65.2    78    0.0     0     0.0   836.6    0.00 
 242   23:20   0.00   65.1    81    0.0     0     0.0   836.7    0.00 
 242   23:30   0.00   64.8    82    0.1   285     1.8   836.8    0.00 

Return to Southwestern Research Station graphs page.


Western Regional Climate Center,wrcc@dri.edu